sensor_id;sensor_type;location;lat;lon;timestamp;temperature;humidity
15343;DHT22;7771;48.478;8.936;2023-04-24T00:00:32;13.20;99.90
15343;DHT22;7771;48.478;8.936;2023-04-24T00:02:59;13.20;99.90
15343;DHT22;7771;48.478;8.936;2023-04-24T00:07:53;13.20;99.90
15343;DHT22;7771;48.478;8.936;2023-04-24T00:10:21;13.20;99.90
15343;DHT22;7771;48.478;8.936;2023-04-24T00:12:47;13.20;99.90
15343;DHT22;7771;48.478;8.936;2023-04-24T00:15:15;13.20;99.90
15343;DHT22;7771;48.478;8.936;2023-04-24T00:17:42;13.30;99.90
15343;DHT22;7771;48.478;8.936;2023-04-24T00:20:10;13.30;99.90
15343;DHT22;7771;48.478;8.936;2023-04-24T00:22:37;13.30;99.90
15343;DHT22;7771;48.478;8.936;2023-04-24T00:25:04;13.30;99.90
15343;DHT22;7771;48.478;8.936;2023-04-24T00:27:32;13.30;99.90
15343;DHT22;7771;48.478;8.936;2023-04-24T00:32:28;13.20;99.90
15343;DHT22;7771;48.478;8.936;2023-04-24T00:34:54;13.20;99.90
15343;DHT22;7771;48.478;8.936;2023-04-24T00:39:49;13.20;99.90
15343;DHT22;7771;48.478;8.936;2023-04-24T00:42:16;13.20;99.90
15343;DHT22;7771;48.478;8.936;2023-04-24T00:44:42;13.20;99.90
15343;DHT22;7771;48.478;8.936;2023-04-24T00:47:09;13.20;99.90
15343;DHT22;7771;48.478;8.936;2023-04-24T00:49:37;13.20;99.90
15343;DHT22;7771;48.478;8.936;2023-04-24T00:52:05;13.20;99.90
15343;DHT22;7771;48.478;8.936;2023-04-24T00:59:29;13.20;99.90
15343;DHT22;7771;48.478;8.936;2023-04-24T01:01:55;13.20;99.90
15343;DHT22;7771;48.478;8.936;2023-04-24T01:04:22;13.20;99.90
15343;DHT22;7771;48.478;8.936;2023-04-24T01:06:49;13.20;99.90
15343;DHT22;7771;48.478;8.936;2023-04-24T01:09:16;13.20;99.90
15343;DHT22;7771;48.478;8.936;2023-04-24T01:11:42;13.10;99.90
15343;DHT22;7771;48.478;8.936;2023-04-24T01:14:09;13.10;99.90
15343;DHT22;7771;48.478;8.936;2023-04-24T01:16:37;13.10;99.90
15343;DHT22;7771;48.478;8.936;2023-04-24T01:19:05;13.00;99.90
15343;DHT22;7771;48.478;8.936;2023-04-24T01:21:32;13.00;99.90
15343;DHT22;7771;48.478;8.936;2023-04-24T01:23:58;12.90;99.90
15343;DHT22;7771;48.478;8.936;2023-04-24T01:26:25;12.90;99.90
15343;DHT22;7771;48.478;8.936;2023-04-24T01:28:52;12.90;99.90
15343;DHT22;7771;48.478;8.936;2023-04-24T01:31:20;12.90;99.90
15343;DHT22;7771;48.478;8.936;2023-04-24T01:33:47;12.90;99.90
15343;DHT22;7771;48.478;8.936;2023-04-24T01:36:13;12.80;99.90
15343;DHT22;7771;48.478;8.936;2023-04-24T01:38:40;12.80;99.90
15343;DHT22;7771;48.478;8.936;2023-04-24T01:41:07;12.80;99.90
15343;DHT22;7771;48.478;8.936;2023-04-24T01:43:34;12.90;99.90
15343;DHT22;7771;48.478;8.936;2023-04-24T01:46:02;12.80;99.90
15343;DHT22;7771;48.478;8.936;2023-04-24T01:48:29;12.80;99.90
15343;DHT22;7771;48.478;8.936;2023-04-24T01:50:56;12.90;99.90
15343;DHT22;7771;48.478;8.936;2023-04-24T01:53:24;12.80;99.90
15343;DHT22;7771;48.478;8.936;2023-04-24T01:55:51;12.90;99.90
15343;DHT22;7771;48.478;8.936;2023-04-24T01:58:18;12.80;99.90
15343;DHT22;7771;48.478;8.936;2023-04-24T02:00:45;12.90;99.90
15343;DHT22;7771;48.478;8.936;2023-04-24T02:03:13;12.90;99.90
15343;DHT22;7771;48.478;8.936;2023-04-24T02:05:40;12.80;99.90
15343;DHT22;7771;48.478;8.936;2023-04-24T02:08:06;12.90;99.90
15343;DHT22;7771;48.478;8.936;2023-04-24T02:10:34;12.80;99.90
15343;DHT22;7771;48.478;8.936;2023-04-24T02:13:00;12.90;99.90
15343;DHT22;7771;48.478;8.936;2023-04-24T02:15:28;12.90;99.90
15343;DHT22;7771;48.478;8.936;2023-04-24T02:17:54;12.80;99.90
15343;DHT22;7771;48.478;8.936;2023-04-24T02:20:21;12.80;99.90
15343;DHT22;7771;48.478;8.936;2023-04-24T02:22:48;12.80;99.90
15343;DHT22;7771;48.478;8.936;2023-04-24T02:25:14;12.80;99.90
15343;DHT22;7771;48.478;8.936;2023-04-24T02:27:41;12.80;99.90
15343;DHT22;7771;48.478;8.936;2023-04-24T02:30:09;12.70;99.90
15343;DHT22;7771;48.478;8.936;2023-04-24T02:35:03;12.70;99.90
15343;DHT22;7771;48.478;8.936;2023-04-24T02:37:30;12.70;99.90
15343;DHT22;7771;48.478;8.936;2023-04-24T02:39:57;12.80;99.90
15343;DHT22;7771;48.478;8.936;2023-04-24T02:42:25;12.80;99.90
15343;DHT22;7771;48.478;8.936;2023-04-24T02:44:51;12.80;99.90
15343;DHT22;7771;48.478;8.936;2023-04-24T02:47:19;12.90;99.90
15343;DHT22;7771;48.478;8.936;2023-04-24T02:49:45;12.90;99.90
15343;DHT22;7771;48.478;8.936;2023-04-24T02:52:13;12.80;99.90
15343;DHT22;7771;48.478;8.936;2023-04-24T02:54:41;12.80;99.90
15343;DHT22;7771;48.478;8.936;2023-04-24T02:57:08;12.80;99.90
15343;DHT22;7771;48.478;8.936;2023-04-24T03:02:03;12.60;99.90
15343;DHT22;7771;48.478;8.936;2023-04-24T03:04:32;12.70;99.90
15343;DHT22;7771;48.478;8.936;2023-04-24T03:06:58;12.80;99.90
15343;DHT22;7771;48.478;8.936;2023-04-24T03:09:25;12.70;99.90
15343;DHT22;7771;48.478;8.936;2023-04-24T03:11:54;12.70;99.90
15343;DHT22;7771;48.478;8.936;2023-04-24T03:14:20;12.70;99.90
15343;DHT22;7771;48.478;8.936;2023-04-24T03:16:47;12.70;99.90
15343;DHT22;7771;48.478;8.936;2023-04-24T03:19:14;12.70;99.90
15343;DHT22;7771;48.478;8.936;2023-04-24T03:21:41;12.60;99.90
15343;DHT22;7771;48.478;8.936;2023-04-24T03:24:08;12.60;99.90
15343;DHT22;7771;48.478;8.936;2023-04-24T03:29:03;12.50;99.90
15343;DHT22;7771;48.478;8.936;2023-04-24T03:31:30;12.50;99.90
15343;DHT22;7771;48.478;8.936;2023-04-24T03:33:57;12.50;99.90
15343;DHT22;7771;48.478;8.936;2023-04-24T03:36:25;12.50;99.90
15343;DHT22;7771;48.478;8.936;2023-04-24T03:38:53;12.50;99.90
15343;DHT22;7771;48.478;8.936;2023-04-24T03:41:19;12.50;99.90
15343;DHT22;7771;48.478;8.936;2023-04-24T03:43:47;12.50;99.90
15343;DHT22;7771;48.478;8.936;2023-04-24T03:46:13;12.40;99.90
15343;DHT22;7771;48.478;8.936;2023-04-24T03:48:40;12.40;99.90
15343;DHT22;7771;48.478;8.936;2023-04-24T03:51:07;12.40;99.90
15343;DHT22;7771;48.478;8.936;2023-04-24T03:53:34;12.30;99.90
15343;DHT22;7771;48.478;8.936;2023-04-24T03:56:00;12.30;99.90
15343;DHT22;7771;48.478;8.936;2023-04-24T03:58:27;12.30;99.90
15343;DHT22;7771;48.478;8.936;2023-04-24T04:00:54;12.30;99.90
15343;DHT22;7771;48.478;8.936;2023-04-24T04:03:22;12.30;99.90
15343;DHT22;7771;48.478;8.936;2023-04-24T04:05:48;12.30;99.90
15343;DHT22;7771;48.478;8.936;2023-04-24T04:08:16;12.30;99.90
15343;DHT22;7771;48.478;8.936;2023-04-24T04:10:42;12.30;99.90
15343;DHT22;7771;48.478;8.936;2023-04-24T04:13:10;12.30;99.90
15343;DHT22;7771;48.478;8.936;2023-04-24T04:15:38;12.30;99.90
15343;DHT22;7771;48.478;8.936;2023-04-24T04:18:05;12.30;99.90
15343;DHT22;7771;48.478;8.936;2023-04-24T04:20:33;12.30;99.90
15343;DHT22;7771;48.478;8.936;2023-04-24T04:22:59;12.30;99.90
15343;DHT22;7771;48.478;8.936;2023-04-24T04:25:26;12.40;99.90
15343;DHT22;7771;48.478;8.936;2023-04-24T04:27:54;12.40;99.90
15343;DHT22;7771;48.478;8.936;2023-04-24T04:30:21;12.40;99.90
15343;DHT22;7771;48.478;8.936;2023-04-24T04:32:49;12.40;99.90
15343;DHT22;7771;48.478;8.936;2023-04-24T04:35:15;12.40;99.90
15343;DHT22;7771;48.478;8.936;2023-04-24T04:40:12;12.40;99.90
15343;DHT22;7771;48.478;8.936;2023-04-24T04:42:39;12.30;99.90
15343;DHT22;7771;48.478;8.936;2023-04-24T04:45:08;12.30;99.90
15343;DHT22;7771;48.478;8.936;2023-04-24T04:47:35;12.20;99.90
15343;DHT22;7771;48.478;8.936;2023-04-24T04:50:02;12.20;99.90
15343;DHT22;7771;48.478;8.936;2023-04-24T04:54:57;12.10;99.90
15343;DHT22;7771;48.478;8.936;2023-04-24T04:57:24;12.10;99.90
15343;DHT22;7771;48.478;8.936;2023-04-24T05:02:20;12.00;99.90
15343;DHT22;7771;48.478;8.936;2023-04-24T05:04:47;12.00;99.90
15343;DHT22;7771;48.478;8.936;2023-04-24T05:07:15;12.00;99.90
15343;DHT22;7771;48.478;8.936;2023-04-24T05:09:42;12.00;99.90
15343;DHT22;7771;48.478;8.936;2023-04-24T05:12:08;12.00;99.90
15343;DHT22;7771;48.478;8.936;2023-04-24T05:14:35;12.00;99.90
15343;DHT22;7771;48.478;8.936;2023-04-24T05:17:02;12.00;99.90
15343;DHT22;7771;48.478;8.936;2023-04-24T05:19:31;12.00;99.90
15343;DHT22;7771;48.478;8.936;2023-04-24T05:21:57;11.90;99.90
15343;DHT22;7771;48.478;8.936;2023-04-24T05:24:24;11.80;99.90
15343;DHT22;7771;48.478;8.936;2023-04-24T05:26:51;11.80;99.90
15343;DHT22;7771;48.478;8.936;2023-04-24T05:29:18;11.80;99.90
15343;DHT22;7771;48.478;8.936;2023-04-24T05:31:45;11.80;99.90
15343;DHT22;7771;48.478;8.936;2023-04-24T05:34:12;11.80;99.90
15343;DHT22;7771;48.478;8.936;2023-04-24T05:36:39;11.80;99.90
15343;DHT22;7771;48.478;8.936;2023-04-24T05:39:06;11.80;99.90
15343;DHT22;7771;48.478;8.936;2023-04-24T05:41:32;11.80;99.90
15343;DHT22;7771;48.478;8.936;2023-04-24T05:43:59;11.70;99.90
15343;DHT22;7771;48.478;8.936;2023-04-24T05:46:26;11.80;99.90
15343;DHT22;7771;48.478;8.936;2023-04-24T05:48:54;11.90;99.90
15343;DHT22;7771;48.478;8.936;2023-04-24T05:51:22;11.90;99.90
15343;DHT22;7771;48.478;8.936;2023-04-24T05:53:50;12.00;99.90
15343;DHT22;7771;48.478;8.936;2023-04-24T05:56:16;12.00;99.90
15343;DHT22;7771;48.478;8.936;2023-04-24T05:58:45;12.00;99.90
15343;DHT22;7771;48.478;8.936;2023-04-24T06:01:11;12.00;99.90
15343;DHT22;7771;48.478;8.936;2023-04-24T06:06:07;11.90;99.90
15343;DHT22;7771;48.478;8.936;2023-04-24T06:08:33;11.90;99.90
15343;DHT22;7771;48.478;8.936;2023-04-24T06:11:00;11.80;99.90
15343;DHT22;7771;48.478;8.936;2023-04-24T06:13:27;11.80;99.90
15343;DHT22;7771;48.478;8.936;2023-04-24T06:15:54;11.90;99.90
15343;DHT22;7771;48.478;8.936;2023-04-24T06:18:21;11.90;99.90
15343;DHT22;7771;48.478;8.936;2023-04-24T06:20:48;11.80;99.90
15343;DHT22;7771;48.478;8.936;2023-04-24T06:23:15;11.80;99.90
15343;DHT22;7771;48.478;8.936;2023-04-24T06:25:43;11.80;99.90
15343;DHT22;7771;48.478;8.936;2023-04-24T06:28:10;11.80;99.90
15343;DHT22;7771;48.478;8.936;2023-04-24T06:30:37;11.90;99.90
15343;DHT22;7771;48.478;8.936;2023-04-24T06:33:04;12.00;99.90
15343;DHT22;7771;48.478;8.936;2023-04-24T06:35:31;12.10;99.90
15343;DHT22;7771;48.478;8.936;2023-04-24T06:37:58;12.30;99.90
15343;DHT22;7771;48.478;8.936;2023-04-24T06:40:26;12.40;99.90
15343;DHT22;7771;48.478;8.936;2023-04-24T06:42:53;12.70;99.90
15343;DHT22;7771;48.478;8.936;2023-04-24T06:45:20;12.90;99.90
15343;DHT22;7771;48.478;8.936;2023-04-24T06:47:47;13.10;99.90
15343;DHT22;7771;48.478;8.936;2023-04-24T06:50:13;13.20;99.90
15343;DHT22;7771;48.478;8.936;2023-04-24T06:52:41;13.40;99.90
15343;DHT22;7771;48.478;8.936;2023-04-24T06:55:08;13.70;99.90
15343;DHT22;7771;48.478;8.936;2023-04-24T06:57:36;13.90;99.90
15343;DHT22;7771;48.478;8.936;2023-04-24T07:02:31;14.20;99.90
15343;DHT22;7771;48.478;8.936;2023-04-24T07:04:59;14.20;99.90
15343;DHT22;7771;48.478;8.936;2023-04-24T07:07:27;14.30;99.90
15343;DHT22;7771;48.478;8.936;2023-04-24T07:09:53;14.30;99.90
15343;DHT22;7771;48.478;8.936;2023-04-24T07:12:21;14.20;99.90
15343;DHT22;7771;48.478;8.936;2023-04-24T07:14:50;14.20;99.90
15343;DHT22;7771;48.478;8.936;2023-04-24T07:17:15;14.10;99.90
15343;DHT22;7771;48.478;8.936;2023-04-24T07:19:42;14.00;99.90
15343;DHT22;7771;48.478;8.936;2023-04-24T07:22:09;14.10;99.90
15343;DHT22;7771;48.478;8.936;2023-04-24T07:24:36;14.10;99.90
15343;DHT22;7771;48.478;8.936;2023-04-24T07:27:03;14.30;99.90
15343;DHT22;7771;48.478;8.936;2023-04-24T07:31:58;14.50;99.90
15343;DHT22;7771;48.478;8.936;2023-04-24T07:34:26;14.60;99.90
15343;DHT22;7771;48.478;8.936;2023-04-24T07:36:52;14.90;99.90
15343;DHT22;7771;48.478;8.936;2023-04-24T07:39:20;14.90;99.90
15343;DHT22;7771;48.478;8.936;2023-04-24T07:41:48;14.90;99.90
15343;DHT22;7771;48.478;8.936;2023-04-24T07:44:15;15.10;99.90
15343;DHT22;7771;48.478;8.936;2023-04-24T07:46:43;15.30;99.90
15343;DHT22;7771;48.478;8.936;2023-04-24T07:49:11;15.50;99.90
15343;DHT22;7771;48.478;8.936;2023-04-24T07:51:39;15.70;99.90
15343;DHT22;7771;48.478;8.936;2023-04-24T07:54:05;15.90;99.90
15343;DHT22;7771;48.478;8.936;2023-04-24T07:59:01;16.10;99.90
15343;DHT22;7771;48.478;8.936;2023-04-24T08:01:29;16.00;99.90
15343;DHT22;7771;48.478;8.936;2023-04-24T08:08:53;15.90;99.90
15343;DHT22;7771;48.478;8.936;2023-04-24T08:11:19;15.90;99.90
15343;DHT22;7771;48.478;8.936;2023-04-24T08:13:47;15.90;99.90
15343;DHT22;7771;48.478;8.936;2023-04-24T08:16:14;15.90;99.90
15343;DHT22;7771;48.478;8.936;2023-04-24T08:18:41;16.00;99.40
15343;DHT22;7771;48.478;8.936;2023-04-24T08:23:36;16.10;98.50
15343;DHT22;7771;48.478;8.936;2023-04-24T08:26:02;16.20;98.60
15343;DHT22;7771;48.478;8.936;2023-04-24T08:28:30;16.30;98.80
15343;DHT22;7771;48.478;8.936;2023-04-24T08:33:25;16.60;98.70
15343;DHT22;7771;48.478;8.936;2023-04-24T08:35:52;16.90;98.80
15343;DHT22;7771;48.478;8.936;2023-04-24T08:38:19;16.90;97.70
15343;DHT22;7771;48.478;8.936;2023-04-24T08:40:46;17.00;97.20
15343;DHT22;7771;48.478;8.936;2023-04-24T08:43:13;17.00;96.50
15343;DHT22;7771;48.478;8.936;2023-04-24T08:45:40;17.00;95.60
15343;DHT22;7771;48.478;8.936;2023-04-24T08:48:07;17.10;96.10
15343;DHT22;7771;48.478;8.936;2023-04-24T08:50:34;17.20;96.30
15343;DHT22;7771;48.478;8.936;2023-04-24T08:53:01;17.30;95.70
15343;DHT22;7771;48.478;8.936;2023-04-24T08:55:29;17.50;95.70
15343;DHT22;7771;48.478;8.936;2023-04-24T08:57:56;17.60;95.30
15343;DHT22;7771;48.478;8.936;2023-04-24T09:00:23;17.60;94.70
15343;DHT22;7771;48.478;8.936;2023-04-24T09:02:50;17.40;94.70
15343;DHT22;7771;48.478;8.936;2023-04-24T09:07:45;16.90;95.50
15343;DHT22;7771;48.478;8.936;2023-04-24T09:10:13;16.80;96.10
15343;DHT22;7771;48.478;8.936;2023-04-24T09:12:41;16.90;96.00
15343;DHT22;7771;48.478;8.936;2023-04-24T09:15:08;17.00;95.50
15343;DHT22;7771;48.478;8.936;2023-04-24T09:17:36;17.20;95.00
15343;DHT22;7771;48.478;8.936;2023-04-24T09:22:32;17.60;94.40
15343;DHT22;7771;48.478;8.936;2023-04-24T09:25:02;17.80;94.10
15343;DHT22;7771;48.478;8.936;2023-04-24T09:27:27;17.90;94.60
15343;DHT22;7771;48.478;8.936;2023-04-24T09:32:22;18.40;93.70
15343;DHT22;7771;48.478;8.936;2023-04-24T09:34:49;18.50;93.10
15343;DHT22;7771;48.478;8.936;2023-04-24T09:40:06;18.70;92.10
15343;DHT22;7771;48.478;8.936;2023-04-24T09:42:18;18.70;92.60
15343;DHT22;7771;48.478;8.936;2023-04-24T09:44:46;18.90;92.00
15343;DHT22;7771;48.478;8.936;2023-04-24T09:47:13;19.00;91.80
15343;DHT22;7771;48.478;8.936;2023-04-24T09:49:40;18.80;91.30
15343;DHT22;7771;48.478;8.936;2023-04-24T09:57:21;17.80;90.80
15343;DHT22;7771;48.478;8.936;2023-04-24T09:59:48;17.50;91.40
15343;DHT22;7771;48.478;8.936;2023-04-24T10:02:16;17.40;91.50
15343;DHT22;7771;48.478;8.936;2023-04-24T10:04:53;17.40;91.20
15343;DHT22;7771;48.478;8.936;2023-04-24T10:09:39;17.50;90.60
15343;DHT22;7771;48.478;8.936;2023-04-24T10:12:06;17.60;91.30
15343;DHT22;7771;48.478;8.936;2023-04-24T10:14:32;17.70;90.30
15343;DHT22;7771;48.478;8.936;2023-04-24T10:17:00;17.70;90.50
15343;DHT22;7771;48.478;8.936;2023-04-24T10:21:56;17.70;90.10
15343;DHT22;7771;48.478;8.936;2023-04-24T10:26:52;17.50;90.20
15343;DHT22;7771;48.478;8.936;2023-04-24T10:29:19;17.20;89.70
15343;DHT22;7771;48.478;8.936;2023-04-24T10:31:46;17.00;90.50
15343;DHT22;7771;48.478;8.936;2023-04-24T10:34:14;16.90;90.60
15343;DHT22;7771;48.478;8.936;2023-04-24T10:36:42;16.70;91.20
15343;DHT22;7771;48.478;8.936;2023-04-24T10:44:08;16.40;91.90
15343;DHT22;7771;48.478;8.936;2023-04-24T10:46:35;16.40;92.60
15343;DHT22;7771;48.478;8.936;2023-04-24T10:49:04;16.20;91.80
15343;DHT22;7771;48.478;8.936;2023-04-24T10:59:24;15.90;93.80
15343;DHT22;7771;48.478;8.936;2023-04-24T11:01:53;16.10;93.40
15343;DHT22;7771;48.478;8.936;2023-04-24T11:04:28;16.30;93.30
15343;DHT22;7771;48.478;8.936;2023-04-24T11:06:46;16.50;93.40
15343;DHT22;7771;48.478;8.936;2023-04-24T11:09:14;16.70;93.40
15343;DHT22;7771;48.478;8.936;2023-04-24T11:11:45;16.90;92.20
15343;DHT22;7771;48.478;8.936;2023-04-24T11:14:15;16.90;91.70
15343;DHT22;7771;48.478;8.936;2023-04-24T11:16:43;16.90;91.70
15343;DHT22;7771;48.478;8.936;2023-04-24T11:26:54;16.40;92.10
15343;DHT22;7771;48.478;8.936;2023-04-24T11:29:20;16.20;91.90
15343;DHT22;7771;48.478;8.936;2023-04-24T11:31:47;16.00;92.10
15343;DHT22;7771;48.478;8.936;2023-04-24T11:34:15;15.90;92.50
15343;DHT22;7771;48.478;8.936;2023-04-24T11:39:09;15.70;92.50
15343;DHT22;7771;48.478;8.936;2023-04-24T11:41:36;15.60;92.70
15343;DHT22;7771;48.478;8.936;2023-04-24T11:44:04;15.50;93.30
15343;DHT22;7771;48.478;8.936;2023-04-24T11:46:30;15.40;93.40
15343;DHT22;7771;48.478;8.936;2023-04-24T11:48:57;15.20;93.70
15343;DHT22;7771;48.478;8.936;2023-04-24T11:53:53;15.10;94.00
15343;DHT22;7771;48.478;8.936;2023-04-24T11:56:21;15.00;94.10
15343;DHT22;7771;48.478;8.936;2023-04-24T11:58:48;14.90;94.70
15343;DHT22;7771;48.478;8.936;2023-04-24T12:01:14;14.80;95.00
15343;DHT22;7771;48.478;8.936;2023-04-24T12:03:42;14.80;95.00
15343;DHT22;7771;48.478;8.936;2023-04-24T12:06:10;14.80;94.50
15343;DHT22;7771;48.478;8.936;2023-04-24T12:08:38;14.80;94.50
15343;DHT22;7771;48.478;8.936;2023-04-24T12:11:05;14.80;94.50
15343;DHT22;7771;48.478;8.936;2023-04-24T12:13:32;14.90;94.60
15343;DHT22;7771;48.478;8.936;2023-04-24T12:16:00;15.00;94.70
15343;DHT22;7771;48.478;8.936;2023-04-24T12:18:27;15.00;93.90
15343;DHT22;7771;48.478;8.936;2023-04-24T12:20:53;15.00;93.80
15343;DHT22;7771;48.478;8.936;2023-04-24T12:23:38;15.00;93.60
15343;DHT22;7771;48.478;8.936;2023-04-24T12:31:01;14.70;94.10
15343;DHT22;7771;48.478;8.936;2023-04-24T12:33:27;14.80;94.10
15343;DHT22;7771;48.478;8.936;2023-04-24T12:38:24;14.70;93.90
15343;DHT22;7771;48.478;8.936;2023-04-24T12:41:00;14.70;94.10
15343;DHT22;7771;48.478;8.936;2023-04-24T12:43:18;14.70;94.10
15343;DHT22;7771;48.478;8.936;2023-04-24T12:45:44;14.60;94.30
15343;DHT22;7771;48.478;8.936;2023-04-24T12:48:11;14.70;94.20
15343;DHT22;7771;48.478;8.936;2023-04-24T12:50:38;14.80;94.50
15343;DHT22;7771;48.478;8.936;2023-04-24T12:53:08;14.90;94.40
15343;DHT22;7771;48.478;8.936;2023-04-24T12:55:32;15.10;94.40
15343;DHT22;7771;48.478;8.936;2023-04-24T13:00:28;15.30;94.20
15343;DHT22;7771;48.478;8.936;2023-04-24T13:02:56;15.40;94.20
15343;DHT22;7771;48.478;8.936;2023-04-24T13:05:23;15.50;93.60
15343;DHT22;7771;48.478;8.936;2023-04-24T13:07:50;15.70;93.60
15343;DHT22;7771;48.478;8.936;2023-04-24T13:12:45;16.00;93.00
15343;DHT22;7771;48.478;8.936;2023-04-24T13:15:11;16.10;92.70
15343;DHT22;7771;48.478;8.936;2023-04-24T13:17:39;16.10;92.20
15343;DHT22;7771;48.478;8.936;2023-04-24T13:22:33;16.20;92.20
15343;DHT22;7771;48.478;8.936;2023-04-24T13:25:00;16.10;92.40
15343;DHT22;7771;48.478;8.936;2023-04-24T13:27:27;16.10;92.80
15343;DHT22;7771;48.478;8.936;2023-04-24T13:29:58;16.00;92.90
15343;DHT22;7771;48.478;8.936;2023-04-24T13:32:25;15.90;92.60
15343;DHT22;7771;48.478;8.936;2023-04-24T13:34:51;15.90;93.00
15343;DHT22;7771;48.478;8.936;2023-04-24T13:37:18;15.80;93.10
15343;DHT22;7771;48.478;8.936;2023-04-24T13:39:45;15.80;92.70
15343;DHT22;7771;48.478;8.936;2023-04-24T13:44:41;15.80;92.60
15343;DHT22;7771;48.478;8.936;2023-04-24T13:49:36;15.80;91.90
15343;DHT22;7771;48.478;8.936;2023-04-24T13:52:04;15.60;91.80
15343;DHT22;7771;48.478;8.936;2023-04-24T13:57:03;15.40;92.20
15343;DHT22;7771;48.478;8.936;2023-04-24T13:59:30;15.30;92.60
15343;DHT22;7771;48.478;8.936;2023-04-24T14:06:53;15.20;93.40
15343;DHT22;7771;48.478;8.936;2023-04-24T14:09:20;15.20;93.60
15343;DHT22;7771;48.478;8.936;2023-04-24T14:11:47;15.10;93.60
15343;DHT22;7771;48.478;8.936;2023-04-24T14:14:13;15.10;93.30
15343;DHT22;7771;48.478;8.936;2023-04-24T14:16:41;15.00;93.20
15343;DHT22;7771;48.478;8.936;2023-04-24T14:19:07;15.00;93.00
15343;DHT22;7771;48.478;8.936;2023-04-24T14:21:35;15.00;93.10
15343;DHT22;7771;48.478;8.936;2023-04-24T14:24:01;15.00;93.10
15343;DHT22;7771;48.478;8.936;2023-04-24T14:26:29;14.90;93.20
15343;DHT22;7771;48.478;8.936;2023-04-24T14:28:56;14.80;93.30
15343;DHT22;7771;48.478;8.936;2023-04-24T14:33:50;14.80;93.60
15343;DHT22;7771;48.478;8.936;2023-04-24T14:36:17;14.80;93.60
15343;DHT22;7771;48.478;8.936;2023-04-24T14:38:44;14.70;93.70
15343;DHT22;7771;48.478;8.936;2023-04-24T14:41:11;14.70;93.40
15343;DHT22;7771;48.478;8.936;2023-04-24T14:43:39;14.60;93.90
15343;DHT22;7771;48.478;8.936;2023-04-24T14:46:06;14.60;93.90
15343;DHT22;7771;48.478;8.936;2023-04-24T14:48:32;14.50;94.00
15343;DHT22;7771;48.478;8.936;2023-04-24T14:51:00;14.60;93.60
15343;DHT22;7771;48.478;8.936;2023-04-24T14:53:27;14.50;93.60
15343;DHT22;7771;48.478;8.936;2023-04-24T14:55:54;14.50;93.90
15343;DHT22;7771;48.478;8.936;2023-04-24T14:58:21;14.40;94.00
15343;DHT22;7771;48.478;8.936;2023-04-24T15:00:47;14.50;94.10
15343;DHT22;7771;48.478;8.936;2023-04-24T15:03:15;14.50;94.20
15343;DHT22;7771;48.478;8.936;2023-04-24T15:05:41;14.50;94.40
15343;DHT22;7771;48.478;8.936;2023-04-24T15:08:09;14.60;94.90
15343;DHT22;7771;48.478;8.936;2023-04-24T15:10:35;14.60;94.90
15343;DHT22;7771;48.478;8.936;2023-04-24T15:13:03;14.60;94.90
15343;DHT22;7771;48.478;8.936;2023-04-24T15:15:31;14.60;95.00
15343;DHT22;7771;48.478;8.936;2023-04-24T15:17:57;14.70;95.00
15343;DHT22;7771;48.478;8.936;2023-04-24T15:23:05;14.70;95.10
15343;DHT22;7771;48.478;8.936;2023-04-24T15:25:32;14.70;94.60
15343;DHT22;7771;48.478;8.936;2023-04-24T15:28:00;14.70;94.50
15343;DHT22;7771;48.478;8.936;2023-04-24T15:30:27;14.80;94.30
15343;DHT22;7771;48.478;8.936;2023-04-24T15:32:54;14.80;94.40
15343;DHT22;7771;48.478;8.936;2023-04-24T15:35:20;14.80;94.40
15343;DHT22;7771;48.478;8.936;2023-04-24T15:37:48;14.80;94.20
15343;DHT22;7771;48.478;8.936;2023-04-24T15:40:14;14.90;94.20
15343;DHT22;7771;48.478;8.936;2023-04-24T15:42:42;14.90;94.10
15343;DHT22;7771;48.478;8.936;2023-04-24T15:45:10;15.00;94.30
15343;DHT22;7771;48.478;8.936;2023-04-24T15:47:38;15.00;94.30
15343;DHT22;7771;48.478;8.936;2023-04-24T15:50:05;15.20;94.30
15343;DHT22;7771;48.478;8.936;2023-04-24T15:52:33;15.20;93.40
15343;DHT22;7771;48.478;8.936;2023-04-24T15:55:02;15.30;93.30
15343;DHT22;7771;48.478;8.936;2023-04-24T15:57:28;15.30;93.30
15343;DHT22;7771;48.478;8.936;2023-04-24T15:59:55;15.30;93.10
15343;DHT22;7771;48.478;8.936;2023-04-24T16:02:21;15.40;93.00
15343;DHT22;7771;48.478;8.936;2023-04-24T16:04:49;15.50;92.60
15343;DHT22;7771;48.478;8.936;2023-04-24T16:07:15;15.50;92.50
15343;DHT22;7771;48.478;8.936;2023-04-24T16:09:43;15.50;92.40
15343;DHT22;7771;48.478;8.936;2023-04-24T16:12:10;15.50;92.30
15343;DHT22;7771;48.478;8.936;2023-04-24T16:14:38;15.40;92.10
15343;DHT22;7771;48.478;8.936;2023-04-24T16:17:05;15.30;92.40
15343;DHT22;7771;48.478;8.936;2023-04-24T16:19:32;15.30;92.70
15343;DHT22;7771;48.478;8.936;2023-04-24T16:22:00;15.30;92.80
15343;DHT22;7771;48.478;8.936;2023-04-24T16:24:28;15.30;92.50
15343;DHT22;7771;48.478;8.936;2023-04-24T16:26:55;15.20;92.40
15343;DHT22;7771;48.478;8.936;2023-04-24T16:29:22;15.20;92.60
15343;DHT22;7771;48.478;8.936;2023-04-24T16:31:49;15.20;92.90
15343;DHT22;7771;48.478;8.936;2023-04-24T16:34:16;15.30;92.60
15343;DHT22;7771;48.478;8.936;2023-04-24T16:36:43;15.30;92.80
15343;DHT22;7771;48.478;8.936;2023-04-24T16:39:10;15.30;92.70
15343;DHT22;7771;48.478;8.936;2023-04-24T16:41:36;15.30;92.70
15343;DHT22;7771;48.478;8.936;2023-04-24T16:44:10;15.20;92.80
15343;DHT22;7771;48.478;8.936;2023-04-24T16:49:06;15.00;92.80
15343;DHT22;7771;48.478;8.936;2023-04-24T16:51:33;15.00;93.00
15343;DHT22;7771;48.478;8.936;2023-04-24T16:54:00;15.00;93.60
15343;DHT22;7771;48.478;8.936;2023-04-24T16:56:27;15.00;93.00
15343;DHT22;7771;48.478;8.936;2023-04-24T16:58:54;15.10;93.10
15343;DHT22;7771;48.478;8.936;2023-04-24T17:03:49;15.00;93.30
15343;DHT22;7771;48.478;8.936;2023-04-24T17:06:16;14.90;93.60
15343;DHT22;7771;48.478;8.936;2023-04-24T17:08:43;14.80;93.70
15343;DHT22;7771;48.478;8.936;2023-04-24T17:11:10;14.70;94.00
15343;DHT22;7771;48.478;8.936;2023-04-24T17:16:04;14.50;93.90
15343;DHT22;7771;48.478;8.936;2023-04-24T17:18:31;14.50;93.80
15343;DHT22;7771;48.478;8.936;2023-04-24T17:20:58;14.40;93.90
15343;DHT22;7771;48.478;8.936;2023-04-24T17:25:53;14.30;93.90
15343;DHT22;7771;48.478;8.936;2023-04-24T17:28:24;14.20;94.00
15343;DHT22;7771;48.478;8.936;2023-04-24T17:30:50;14.10;94.10
15343;DHT22;7771;48.478;8.936;2023-04-24T17:33:18;14.10;94.40
15343;DHT22;7771;48.478;8.936;2023-04-24T17:35:45;14.10;94.50
15343;DHT22;7771;48.478;8.936;2023-04-24T17:38:12;14.00;94.60
15343;DHT22;7771;48.478;8.936;2023-04-24T17:45:35;14.00;95.00
15343;DHT22;7771;48.478;8.936;2023-04-24T17:48:01;13.90;95.20
15343;DHT22;7771;48.478;8.936;2023-04-24T17:50:29;13.90;95.20
15343;DHT22;7771;48.478;8.936;2023-04-24T17:55:25;13.90;95.50
15343;DHT22;7771;48.478;8.936;2023-04-24T17:57:53;13.80;95.70
15343;DHT22;7771;48.478;8.936;2023-04-24T18:00:19;13.80;95.90
15343;DHT22;7771;48.478;8.936;2023-04-24T18:02:47;13.70;95.90
15343;DHT22;7771;48.478;8.936;2023-04-24T18:05:16;13.70;96.00
15343;DHT22;7771;48.478;8.936;2023-04-24T18:07:43;13.70;96.20